createdAt,value
2017-07-07T00:00:20.768Z,19.24
2017-07-07T00:01:20.745Z,19.24
2017-07-07T00:02:20.718Z,19.24
2017-07-07T00:03:20.707Z,19.23
2017-07-07T00:04:20.677Z,19.17
2017-07-07T00:05:20.712Z,19.16
2017-07-07T00:06:20.646Z,19.24
2017-07-07T00:07:20.636Z,19.2
2017-07-07T00:08:20.610Z,19.2
2017-07-07T00:09:20.581Z,19.21
2017-07-07T00:10:20.571Z,19.15
2017-07-07T00:11:20.537Z,19.21
2017-07-07T00:12:20.526Z,19.17
2017-07-07T00:13:20.515Z,19.13
2017-07-07T00:14:20.493Z,19.25
2017-07-07T00:15:20.528Z,19.23
2017-07-07T00:16:20.462Z,19.15
2017-07-07T00:17:20.425Z,19.23
2017-07-07T00:18:20.411Z,19.2
2017-07-07T00:19:20.393Z,19.2
2017-07-07T00:20:20.370Z,19.13
2017-07-07T00:21:20.603Z,19.17
2017-07-07T00:22:20.333Z,19.15
2017-07-07T00:23:20.365Z,19.12
2017-07-07T00:24:20.301Z,19.2
2017-07-07T00:25:20.279Z,19.16
2017-07-07T00:26:20.257Z,19.13
2017-07-07T00:27:19.982Z,19.07
2017-07-07T00:28:20.218Z,19.01
2017-07-07T00:29:19.887Z,19.02
2017-07-07T00:30:20.180Z,19.01
2017-07-07T00:31:20.215Z,19.09
2017-07-07T00:32:20.136Z,19.05
2017-07-07T00:33:20.130Z,19.05
2017-07-07T00:34:20.163Z,19.09
2017-07-07T00:35:20.081Z,19.1
2017-07-07T00:36:20.058Z,19.15
2017-07-07T00:37:20.035Z,19.15
2017-07-07T00:38:20.022Z,19.15
2017-07-07T00:39:20.004Z,19.1
2017-07-07T00:40:19.983Z,19.15
2017-07-07T00:41:19.962Z,19.17
2017-07-07T00:42:19.948Z,19.25
2017-07-07T00:43:19.921Z,19.21
2017-07-07T00:44:19.910Z,19.15
2017-07-07T00:45:19.881Z,19.17
2017-07-07T00:46:19.857Z,19.21
2017-07-07T00:47:19.849Z,19.13
2017-07-07T00:48:19.827Z,19.13
2017-07-07T00:49:19.812Z,19.12
2017-07-07T00:50:19.788Z,18.97
2017-07-07T00:51:19.764Z,18.99
2017-07-07T00:52:19.745Z,19.02
2017-07-07T00:53:19.725Z,18.99
2017-07-07T00:54:19.710Z,18.99
2017-07-07T00:55:19.723Z,18.93
2017-07-07T00:56:19.355Z,18.97
2017-07-07T00:57:19.655Z,18.99
2017-07-07T00:58:19.315Z,18.94
2017-07-07T00:59:19.306Z,18.9
2017-07-07T01:00:19.283Z,18.96
2017-07-07T01:01:19.580Z,18.96
2017-07-07T01:02:19.584Z,18.94
2017-07-07T01:03:19.536Z,18.99
2017-07-07T01:04:19.578Z,18.91
2017-07-07T01:05:19.497Z,18.97
2017-07-07T01:06:19.480Z,18.96
2017-07-07T01:07:19.459Z,18.86
2017-07-07T01:08:19.450Z,18.82
2017-07-07T01:09:19.418Z,18.75
2017-07-07T01:10:19.393Z,18.71
2017-07-07T01:11:19.377Z,18.75
2017-07-07T01:12:19.371Z,18.79
2017-07-07T01:13:19.390Z,18.74
2017-07-07T01:14:19.318Z,18.75
2017-07-07T01:15:19.349Z,18.69
2017-07-07T01:16:19.337Z,18.74
2017-07-07T01:17:19.318Z,18.71
2017-07-07T01:18:19.245Z,18.72
2017-07-07T01:19:19.223Z,18.74
2017-07-07T01:20:19.203Z,18.82
2017-07-07T01:21:18.877Z,18.74
2017-07-07T01:22:19.162Z,18.75
2017-07-07T01:23:19.179Z,18.76
2017-07-07T01:24:19.113Z,18.74
2017-07-07T01:25:19.105Z,18.83
2017-07-07T01:26:19.085Z,18.75
2017-07-07T01:27:19.070Z,18.75
2017-07-07T01:28:19.054Z,18.75
2017-07-07T01:29:19.030Z,18.75
2017-07-07T01:30:19.015Z,18.78
2017-07-07T01:31:18.987Z,18.83
2017-07-07T01:32:18.965Z,18.78
2017-07-07T01:33:18.968Z,18.78
2017-07-07T01:35:18.987Z,18.89
2017-07-07T01:36:18.891Z,18.84
2017-07-07T01:37:18.919Z,18.87
2017-07-07T01:38:18.978Z,18.83
2017-07-07T01:39:18.839Z,18.93
2017-07-07T01:40:18.522Z,18.83
2017-07-07T01:41:18.786Z,18.82
2017-07-07T01:42:18.768Z,18.87
2017-07-07T01:43:18.440Z,18.89
2017-07-07T01:44:18.777Z,18.78
2017-07-07T01:45:18.764Z,18.9
2017-07-07T01:46:18.687Z,18.75
2017-07-07T01:47:18.668Z,18.82
2017-07-07T01:48:18.651Z,18.76
2017-07-07T01:49:18.627Z,18.72
2017-07-07T01:50:18.366Z,18.78
2017-07-07T01:51:18.629Z,18.76
2017-07-07T01:52:18.574Z,18.78
2017-07-07T01:53:18.716Z,18.75
2017-07-07T01:58:07.398Z,18.78
2017-07-07T01:59:07.373Z,18.76
2017-07-07T02:00:07.418Z,18.79
2017-07-07T02:01:07.322Z,18.79
2017-07-07T02:02:07.000Z,18.79
2017-07-07T02:03:07.289Z,18.76
2017-07-07T02:04:07.267Z,18.75
2017-07-07T02:05:07.246Z,18.76
2017-07-07T02:06:07.232Z,18.75
2017-07-07T02:07:07.222Z,18.74
2017-07-07T02:08:07.195Z,18.76
2017-07-07T02:09:07.385Z,18.74
2017-07-07T02:10:07.151Z,18.66
2017-07-07T02:11:07.135Z,18.74
2017-07-07T02:12:07.048Z,18.76
2017-07-07T02:13:06.779Z,18.75
2017-07-07T02:14:07.077Z,18.72
2017-07-07T02:15:07.051Z,18.74
2017-07-07T02:16:06.724Z,18.71
2017-07-07T02:17:07.012Z,18.72
2017-07-07T02:18:06.995Z,18.69
2017-07-07T02:19:06.994Z,18.57
2017-07-07T02:20:06.964Z,18.65
2017-07-07T02:21:06.936Z,18.68
2017-07-07T02:22:06.915Z,18.59
2017-07-07T02:23:06.894Z,18.62
2017-07-07T02:24:06.875Z,18.6
2017-07-07T02:25:06.856Z,18.62
2017-07-07T02:26:06.836Z,18.65
2017-07-07T02:27:06.812Z,18.64
2017-07-07T02:28:06.796Z,18.66
2017-07-07T02:29:06.787Z,18.66
2017-07-07T02:30:06.751Z,18.6
2017-07-07T02:31:06.740Z,18.59
2017-07-07T02:32:06.719Z,18.64
2017-07-07T02:33:06.700Z,18.53
2017-07-07T02:34:06.682Z,18.64
2017-07-07T02:35:06.359Z,18.6
2017-07-07T02:36:06.330Z,18.66
2017-07-07T02:37:06.617Z,18.57
2017-07-07T02:38:06.600Z,18.65
2017-07-07T02:39:06.576Z,18.65
2017-07-07T02:40:06.555Z,18.65
2017-07-07T02:41:06.537Z,18.75
2017-07-07T02:42:06.531Z,18.54
2017-07-07T02:43:06.500Z,18.69
2017-07-07T02:44:06.182Z,18.72
2017-07-07T02:45:06.485Z,18.59
2017-07-07T02:46:06.446Z,18.74
2017-07-07T02:47:06.423Z,18.62
2017-07-07T02:48:06.407Z,18.62
2017-07-07T02:49:06.394Z,18.64
2017-07-07T02:50:06.364Z,18.62
2017-07-07T02:51:06.340Z,18.66
2017-07-07T02:52:06.334Z,18.69
2017-07-07T02:53:06.320Z,18.62
2017-07-07T02:54:06.289Z,18.69
2017-07-07T02:55:06.275Z,18.66
2017-07-07T02:56:05.945Z,18.66
2017-07-07T02:57:05.943Z,18.76
2017-07-07T02:58:06.203Z,18.75
2017-07-07T02:59:06.194Z,18.76
2017-07-07T03:00:06.171Z,18.71
2017-07-07T03:01:06.145Z,18.75
2017-07-07T03:02:06.443Z,18.68
2017-07-07T03:03:06.115Z,18.76
2017-07-07T03:04:06.089Z,18.71
2017-07-07T03:05:06.073Z,18.79
2017-07-07T03:06:06.051Z,18.76
2017-07-07T03:07:06.041Z,18.75
2017-07-07T03:08:06.009Z,18.75
2017-07-07T03:09:05.999Z,18.79
2017-07-07T03:10:05.986Z,18.74
2017-07-07T03:11:05.966Z,18.76
2017-07-07T03:12:05.943Z,18.75
2017-07-07T03:13:05.914Z,18.79
2017-07-07T03:14:05.916Z,18.78
2017-07-07T03:15:05.871Z,18.78
2017-07-07T03:16:05.868Z,18.72
2017-07-07T03:17:05.837Z,18.84
2017-07-07T03:18:05.818Z,18.84
2017-07-07T03:19:05.803Z,18.82
2017-07-07T03:20:05.490Z,18.78
2017-07-07T03:21:05.764Z,18.75
2017-07-07T03:22:05.734Z,18.74
2017-07-07T03:23:05.725Z,18.75
2017-07-07T03:24:05.689Z,18.74
2017-07-07T03:25:05.674Z,18.82
2017-07-07T03:26:05.671Z,18.82
2017-07-07T03:27:05.643Z,18.76
2017-07-07T03:28:05.632Z,18.78
2017-07-07T03:29:05.605Z,18.71
2017-07-07T03:30:05.595Z,18.71
2017-07-07T03:31:05.559Z,18.69
2017-07-07T03:32:05.552Z,18.78
2017-07-07T03:33:05.525Z,18.74
2017-07-07T03:34:05.202Z,18.79
2017-07-07T03:35:05.483Z,18.82
2017-07-07T03:36:05.477Z,18.75
2017-07-07T03:37:05.452Z,18.79
2017-07-07T03:38:05.429Z,18.71
2017-07-07T03:39:05.400Z,18.74
2017-07-07T03:40:05.070Z,18.74
2017-07-07T03:41:05.366Z,18.59
2017-07-07T03:42:05.344Z,18.72
2017-07-07T03:43:05.323Z,18.65
2017-07-07T03:44:05.312Z,18.6
2017-07-07T03:45:05.545Z,18.62
2017-07-07T03:46:05.271Z,18.68
2017-07-07T03:47:05.251Z,18.65
2017-07-07T03:48:05.236Z,18.6
2017-07-07T03:49:05.210Z,18.56
2017-07-07T03:50:05.198Z,18.6
2017-07-07T03:51:05.165Z,18.56
2017-07-07T03:52:05.165Z,18.5
2017-07-07T03:53:05.140Z,18.53
2017-07-07T03:54:05.110Z,18.51
2017-07-07T03:55:05.089Z,18.49
2017-07-07T03:56:05.081Z,18.62
2017-07-07T03:57:05.045Z,18.56
2017-07-07T03:58:05.043Z,18.54
2017-07-07T03:59:05.011Z,18.53
2017-07-07T04:00:05.004Z,18.57
2017-07-07T04:01:04.969Z,18.57
2017-07-07T04:02:04.963Z,18.62
2017-07-07T04:03:04.936Z,18.65
2017-07-07T04:04:04.911Z,18.56
2017-07-07T04:05:04.893Z,18.64
2017-07-07T04:06:04.885Z,18.71
2017-07-07T04:07:04.908Z,18.68
2017-07-07T04:08:04.845Z,18.62
2017-07-07T04:09:04.518Z,18.62
2017-07-07T04:10:04.801Z,18.62
2017-07-07T04:11:04.487Z,18.6
2017-07-07T04:12:04.477Z,18.71
2017-07-07T04:13:04.742Z,18.69
2017-07-07T04:14:04.723Z,18.65
2017-07-07T04:15:04.688Z,18.59
2017-07-07T04:16:04.679Z,18.57
2017-07-07T04:17:04.651Z,18.62
2017-07-07T04:18:04.633Z,18.59
2017-07-07T04:19:04.610Z,18.69
2017-07-07T04:20:04.563Z,18.66
2017-07-07T04:21:04.604Z,18.59
2017-07-07T04:22:04.582Z,18.6
2017-07-07T04:23:04.532Z,18.68
2017-07-07T04:24:04.504Z,18.72
2017-07-07T04:25:04.195Z,18.62
2017-07-07T04:26:04.480Z,18.64
2017-07-07T04:27:04.470Z,18.64
2017-07-07T04:28:04.443Z,18.62
2017-07-07T04:29:04.419Z,18.56
2017-07-07T04:30:04.399Z,18.65
2017-07-07T04:31:04.123Z,18.62
2017-07-07T04:32:04.372Z,18.71
2017-07-07T04:33:04.342Z,18.68
2017-07-07T04:34:04.324Z,18.75
2017-07-07T04:35:04.001Z,18.76
2017-07-07T04:36:04.277Z,18.87
2017-07-07T04:37:04.254Z,18.84
2017-07-07T04:38:04.239Z,18.84
2017-07-07T04:39:04.229Z,19.05
2017-07-07T04:40:04.197Z,19.01
2017-07-07T04:41:04.177Z,19.07
2017-07-07T04:42:04.159Z,19.12
2017-07-07T04:43:03.831Z,19.12
2017-07-07T04:44:04.213Z,19.27
2017-07-07T04:45:04.151Z,19.55
2017-07-07T04:46:04.081Z,19.71
2017-07-07T04:47:04.061Z,19.92
2017-07-07T04:48:04.044Z,20
2017-07-07T04:49:04.034Z,20.16
2017-07-07T04:50:03.702Z,20.37
2017-07-07T04:51:03.984Z,20.61
2017-07-07T04:52:03.971Z,20.85
2017-07-07T04:53:03.651Z,20.98
2017-07-07T04:54:03.931Z,21.16
2017-07-07T04:55:03.913Z,21.33
2017-07-07T04:56:03.894Z,21.51
2017-07-07T04:57:03.882Z,21.75
2017-07-07T04:58:03.860Z,21.85
2017-07-07T04:59:03.890Z,22.06
2017-07-07T05:00:03.830Z,22.24
2017-07-07T05:01:03.800Z,22.35
2017-07-07T05:02:03.788Z,22.39
2017-07-07T05:03:03.777Z,22.42
2017-07-07T05:04:03.755Z,22.35
2017-07-07T05:05:03.735Z,22.23
2017-07-07T05:06:03.725Z,22.14
2017-07-07T05:07:03.394Z,22.27
2017-07-07T05:08:03.685Z,22.33
2017-07-07T05:09:03.671Z,22.35
2017-07-07T05:10:03.649Z,22.2
2017-07-07T05:11:03.640Z,22.17
2017-07-07T05:12:03.624Z,22.14
2017-07-07T05:13:03.598Z,22.21
2017-07-07T05:14:03.596Z,22.36
2017-07-07T05:15:03.570Z,22.41
2017-07-07T05:16:03.546Z,22.49
2017-07-07T05:17:03.221Z,22.52
2017-07-07T05:18:03.521Z,22.52
2017-07-07T05:19:03.186Z,22.45
2017-07-07T05:20:03.479Z,22.48
2017-07-07T05:21:03.464Z,22.6
2017-07-07T05:22:03.442Z,22.66
2017-07-07T05:23:03.429Z,22.64
2017-07-07T05:24:03.408Z,22.54
2017-07-07T05:25:03.449Z,22.56
2017-07-07T05:26:03.399Z,22.46
2017-07-07T05:27:03.365Z,22.33
2017-07-07T05:28:03.348Z,22.23
2017-07-07T05:29:03.334Z,22.12
2017-07-07T05:30:03.310Z,22.21
2017-07-07T05:31:03.355Z,22.21
2017-07-07T05:32:03.281Z,22.31
2017-07-07T05:33:03.313Z,22.36
2017-07-07T05:34:02.939Z,22.38
2017-07-07T05:35:03.306Z,22.31
2017-07-07T05:36:03.216Z,22.29
2017-07-07T05:37:03.193Z,22.29
2017-07-07T05:38:03.197Z,22.2
2017-07-07T05:39:03.168Z,22.29
2017-07-07T05:40:03.149Z,22.23
2017-07-07T05:41:02.824Z,22.27
2017-07-07T05:42:03.168Z,22.23
2017-07-07T05:43:03.094Z,22.2
2017-07-07T05:44:03.100Z,22.04
2017-07-07T05:45:03.068Z,22.06
2017-07-07T05:46:03.099Z,21.91
2017-07-07T05:47:03.033Z,21.98
2017-07-07T05:48:02.701Z,21.89
2017-07-07T05:49:02.999Z,21.98
2017-07-07T05:50:02.976Z,22.11
2017-07-07T05:51:03.209Z,22.27
2017-07-07T05:52:02.948Z,22.46
2017-07-07T05:53:02.929Z,22.52
2017-07-07T05:54:02.913Z,22.51
2017-07-07T05:55:02.901Z,22.38
2017-07-07T05:56:02.882Z,22.38
2017-07-07T05:57:02.560Z,22.35
2017-07-07T05:58:02.844Z,22.36
2017-07-07T05:59:02.830Z,22.48
2017-07-07T06:00:02.805Z,22.45
2017-07-07T06:01:02.845Z,22.49
2017-07-07T06:02:02.503Z,22.57
2017-07-07T06:03:02.771Z,22.52
2017-07-07T06:04:02.747Z,22.67
2017-07-07T06:05:02.726Z,22.84
2017-07-07T06:06:02.711Z,23.12
2017-07-07T06:07:02.742Z,23.44
2017-07-07T06:08:02.687Z,23.89
2017-07-07T06:09:02.716Z,24.19
2017-07-07T06:10:02.653Z,24.19
2017-07-07T06:11:02.632Z,24.31
2017-07-07T06:12:02.626Z,24.45
2017-07-07T06:13:02.625Z,24.61
2017-07-07T06:14:02.593Z,24.87
2017-07-07T06:15:02.274Z,25.08
2017-07-07T06:16:02.571Z,25.29
2017-07-07T06:17:02.549Z,25.53
2017-07-07T06:18:02.532Z,25.86
2017-07-07T06:19:02.524Z,25.93
2017-07-07T06:20:02.511Z,26.12
2017-07-07T06:21:02.496Z,26.2
2017-07-07T06:22:02.479Z,26.17
2017-07-07T06:23:02.473Z,26.11
2017-07-07T06:24:02.462Z,25.98
2017-07-07T06:25:02.448Z,25.75
2017-07-07T06:26:02.486Z,25.6
2017-07-07T06:27:02.426Z,25.38
2017-07-07T06:28:02.406Z,25.42
2017-07-07T06:29:02.391Z,25.49
2017-07-07T06:30:02.371Z,25.44
2017-07-07T06:31:02.369Z,25.42
2017-07-07T06:32:02.350Z,25.61
2017-07-07T06:33:02.534Z,25.76
2017-07-07T06:34:02.316Z,26.04
2017-07-07T06:35:02.369Z,26.2
2017-07-07T06:36:02.304Z,26.39
2017-07-07T06:37:02.282Z,26.68
2017-07-07T06:38:02.269Z,26.76
2017-07-07T06:39:02.264Z,26.81
2017-07-07T06:40:02.243Z,26.79
2017-07-07T06:41:02.230Z,26.9
2017-07-07T06:42:01.911Z,27.11
2017-07-07T06:43:02.218Z,27.11
2017-07-07T06:44:02.196Z,27.06
2017-07-07T06:45:02.198Z,27.11
2017-07-07T06:46:02.242Z,27.18
2017-07-07T06:47:02.171Z,27.23
2017-07-07T06:48:02.159Z,27.4
2017-07-07T06:49:02.214Z,27.34
2017-07-07T06:50:02.135Z,27.5
2017-07-07T06:51:02.126Z,27.62
2017-07-07T06:52:02.115Z,27.74
2017-07-07T06:53:02.102Z,28.02
2017-07-07T06:54:02.092Z,28.23
2017-07-07T06:55:02.139Z,28.35
2017-07-07T06:56:02.068Z,28.54
2017-07-07T06:57:02.077Z,28.36
2017-07-07T06:58:02.049Z,28.28
2017-07-07T06:59:02.038Z,28.27
2017-07-07T07:00:02.036Z,28.21
2017-07-07T07:01:02.027Z,28.15
2017-07-07T07:02:02.010Z,27.93
2017-07-07T07:03:02.018Z,27.87
2017-07-07T07:04:01.989Z,27.76
2017-07-07T07:05:01.985Z,27.96
2017-07-07T07:06:02.035Z,28.15
2017-07-07T07:07:01.995Z,28.35
2017-07-07T07:08:01.955Z,28.55
2017-07-07T07:09:01.938Z,28.73
2017-07-07T07:10:01.931Z,28.91
2017-07-07T07:11:01.974Z,29.11
2017-07-07T07:12:01.961Z,29.12
2017-07-07T07:13:01.916Z,29.26
2017-07-07T07:14:01.953Z,29.44
2017-07-07T07:15:01.594Z,29.44
2017-07-07T07:16:01.884Z,29.51
2017-07-07T07:17:01.870Z,29.45
2017-07-07T07:18:01.865Z,29.49
2017-07-07T07:19:01.850Z,29.47
2017-07-07T07:20:01.849Z,29.7
2017-07-07T07:21:01.825Z,29.89
2017-07-07T07:22:01.822Z,30.13
2017-07-07T07:23:01.824Z,30.23
2017-07-07T07:24:01.805Z,30.3
2017-07-07T07:25:01.797Z,30.26
2017-07-07T07:26:01.803Z,30.16
2017-07-07T07:27:01.782Z,30.26
2017-07-07T07:28:01.781Z,30.23
2017-07-07T07:29:01.821Z,30.32
2017-07-07T07:30:01.760Z,30.64
2017-07-07T07:31:01.449Z,30.98
2017-07-07T07:32:01.746Z,31.15
2017-07-07T07:33:01.796Z,31.1
2017-07-07T07:34:01.731Z,31.16
2017-07-07T07:35:01.725Z,31.28
2017-07-07T07:36:01.709Z,31.3
2017-07-07T07:37:01.704Z,31.3
2017-07-07T07:38:01.703Z,31.28
2017-07-07T07:39:01.695Z,31.05
2017-07-07T07:40:01.380Z,31
2017-07-07T07:41:01.672Z,30.97
2017-07-07T07:42:01.668Z,30.9
2017-07-07T07:43:01.663Z,31.03
2017-07-07T07:44:01.666Z,31.09
2017-07-07T07:45:01.657Z,31.25
2017-07-07T07:46:01.895Z,31.3
2017-07-07T07:47:01.323Z,31.42
2017-07-07T07:48:01.617Z,31.42
2017-07-07T07:49:01.651Z,31.49
2017-07-07T07:50:01.613Z,31.4
2017-07-07T07:51:01.617Z,31.3
2017-07-07T07:52:01.596Z,31.04
2017-07-07T07:53:01.585Z,30.93
2017-07-07T07:54:01.586Z,30.94
2017-07-07T07:55:01.573Z,31.04
2017-07-07T07:56:01.565Z,31.2
2017-07-07T07:57:01.355Z,31.31
2017-07-07T07:58:01.557Z,31.53
2017-07-07T07:59:01.547Z,31.75
2017-07-07T08:00:01.536Z,31.84
2017-07-07T08:01:01.556Z,32.21
2017-07-07T08:02:01.523Z,32.41
2017-07-07T08:03:01.511Z,32.63
2017-07-07T08:04:01.509Z,32.56
2017-07-07T08:05:01.507Z,32.68
2017-07-07T08:06:01.500Z,32.76
2017-07-07T08:07:01.489Z,32.66
2017-07-07T08:08:01.489Z,32.53
2017-07-07T08:09:01.479Z,32.41
2017-07-07T08:10:01.473Z,32.51
2017-07-07T08:11:01.515Z,32.66
2017-07-07T08:12:01.462Z,32.96
2017-07-07T08:13:01.459Z,33.18
2017-07-07T08:14:01.455Z,33.22
2017-07-07T08:15:01.441Z,33.12
2017-07-07T08:16:01.467Z,33.11
2017-07-07T08:17:01.438Z,33
2017-07-07T08:18:01.433Z,33.02
2017-07-07T08:19:01.421Z,33
2017-07-07T08:20:01.115Z,33.18
2017-07-07T08:21:01.430Z,33.28
2017-07-07T08:22:01.411Z,33.07
2017-07-07T08:23:01.397Z,32.87
2017-07-07T08:24:01.396Z,32.66
2017-07-07T08:25:01.398Z,32.71
2017-07-07T08:26:01.382Z,32.78
2017-07-07T08:27:01.376Z,33.05
2017-07-07T08:28:01.379Z,33.26
2017-07-07T08:29:01.373Z,33.37
2017-07-07T08:30:01.369Z,33.53
2017-07-07T08:31:01.365Z,33.68
2017-07-07T08:32:01.354Z,33.84
2017-07-07T08:33:01.359Z,34.08
2017-07-07T08:34:01.364Z,34.06
2017-07-07T08:35:01.039Z,34.11
2017-07-07T08:36:01.345Z,34.09
2017-07-07T08:37:01.334Z,34.01
2017-07-07T08:38:01.333Z,34.15
2017-07-07T08:39:01.325Z,34.14
2017-07-07T08:40:01.318Z,34.21
2017-07-07T08:41:01.369Z,34.05
2017-07-07T08:42:01.314Z,33.81
2017-07-07T08:43:01.360Z,33.65
2017-07-07T08:44:01.404Z,33.7
2017-07-07T08:45:01.301Z,33.6
2017-07-07T08:46:00.989Z,33.63
2017-07-07T08:47:01.295Z,33.52
2017-07-07T08:48:01.305Z,33.44
2017-07-07T08:49:01.279Z,33.53
2017-07-07T08:50:01.275Z,33.78
2017-07-07T08:51:01.280Z,34.05
2017-07-07T08:52:01.275Z,33.9
2017-07-07T08:53:00.968Z,33.71
2017-07-07T08:54:00.963Z,33.78
2017-07-07T08:55:01.310Z,33.79
2017-07-07T08:56:01.267Z,33.86
2017-07-07T08:57:01.266Z,33.75
2017-07-07T08:58:01.254Z,33.81
2017-07-07T08:59:01.243Z,33.77
2017-07-07T09:00:01.242Z,33.84
2017-07-07T09:01:01.245Z,33.79
2017-07-07T09:02:01.232Z,33.44
2017-07-07T09:03:00.917Z,33.03
2017-07-07T09:04:01.229Z,32.83
2017-07-07T09:05:01.220Z,32.72
2017-07-07T09:06:01.208Z,32.65
2017-07-07T09:07:01.220Z,32.59
2017-07-07T09:08:01.206Z,32.65
2017-07-07T09:09:01.201Z,33.03
2017-07-07T09:10:01.210Z,33.12
2017-07-07T09:11:01.238Z,33.15
2017-07-07T09:12:01.183Z,33.03
2017-07-07T09:13:01.190Z,33.05
2017-07-07T09:14:01.188Z,32.9
2017-07-07T09:15:01.182Z,32.71
2017-07-07T09:16:01.167Z,32.71
2017-07-07T09:17:01.215Z,32.73
2017-07-07T09:18:01.208Z,32.61
2017-07-07T09:19:01.203Z,32.41
2017-07-07T09:20:01.144Z,32.31
2017-07-07T09:21:01.143Z,32.36
2017-07-07T09:22:01.137Z,32.28
2017-07-07T09:23:00.822Z,32.32
2017-07-07T09:24:01.133Z,32.4
2017-07-07T09:25:01.120Z,32.34
2017-07-07T09:26:01.119Z,32.16
2017-07-07T09:27:01.165Z,32.05
2017-07-07T09:28:01.102Z,31.98
2017-07-07T09:29:01.101Z,31.85
2017-07-07T09:30:01.091Z,31.68
2017-07-07T09:31:01.083Z,31.45
2017-07-07T09:32:01.081Z,31.37
2017-07-07T09:33:01.077Z,31.27
2017-07-07T09:34:01.071Z,31.22
2017-07-07T09:35:01.062Z,31.04
2017-07-07T09:36:01.051Z,31.07
2017-07-07T09:37:01.041Z,31.03
2017-07-07T09:38:01.040Z,31
2017-07-07T09:39:01.029Z,31.25
2017-07-07T09:40:01.125Z,31.41
2017-07-07T09:41:01.018Z,31.68
2017-07-07T09:42:01.005Z,31.91
2017-07-07T09:43:01.016Z,32.05
2017-07-07T09:44:00.998Z,32.16
2017-07-07T09:45:01.049Z,32.28
2017-07-07T09:46:01.032Z,32.41
2017-07-07T09:47:00.977Z,32.87
2017-07-07T09:48:01.027Z,33.15
2017-07-07T09:49:01.006Z,33.07
2017-07-07T09:50:00.955Z,33.14
2017-07-07T09:51:00.947Z,33.11
2017-07-07T09:52:00.948Z,33.02
2017-07-07T09:53:00.942Z,32.91
2017-07-07T09:54:00.932Z,32.81
2017-07-07T09:55:00.921Z,32.77
2017-07-07T09:56:00.918Z,32.98
2017-07-07T09:57:00.958Z,33
2017-07-07T09:58:00.603Z,33.14
2017-07-07T09:59:00.908Z,33.15
2017-07-07T10:00:00.892Z,33.22
2017-07-07T10:01:00.887Z,33.4
2017-07-07T10:02:00.902Z,33.65
2017-07-07T10:03:00.879Z,33.94
2017-07-07T10:04:00.883Z,34.11
2017-07-07T10:05:00.872Z,34.05
2017-07-07T10:06:00.866Z,33.9
2017-07-07T10:07:00.860Z,33.74
2017-07-07T10:08:00.911Z,33.55
2017-07-07T10:09:00.858Z,33.37
2017-07-07T10:10:00.532Z,33.03
2017-07-07T10:11:00.852Z,32.71
2017-07-07T10:12:00.989Z,32.39
2017-07-07T10:13:00.829Z,32.27
2017-07-07T10:14:00.822Z,32.17
2017-07-07T10:15:00.861Z,31.92
2017-07-07T10:16:00.825Z,31.79
2017-07-07T10:17:00.799Z,31.72
2017-07-07T10:18:00.794Z,31.62
2017-07-07T10:19:00.789Z,31.68
2017-07-07T10:20:00.775Z,31.75
2017-07-07T10:21:00.767Z,31.92
2017-07-07T10:22:00.911Z,31.82
2017-07-07T10:23:00.746Z,31.72
2017-07-07T10:24:00.746Z,32.09
2017-07-07T10:25:00.438Z,32.39
2017-07-07T10:26:00.421Z,32.54
2017-07-07T10:27:00.720Z,32.43
2017-07-07T10:28:00.818Z,32.16
2017-07-07T10:29:00.711Z,32.14
2017-07-07T10:30:00.711Z,32.28
2017-07-07T10:31:00.749Z,32.35
2017-07-07T10:32:00.692Z,32.53
2017-07-07T10:33:00.682Z,32.5
2017-07-07T10:34:00.775Z,32.41
2017-07-07T10:35:00.414Z,32.16
2017-07-07T10:36:00.403Z,31.97
2017-07-07T10:37:00.660Z,31.78
2017-07-07T10:38:00.336Z,31.64
2017-07-07T10:39:00.697Z,31.56
2017-07-07T10:40:00.636Z,31.41
2017-07-07T10:41:00.619Z,31.32
2017-07-07T10:42:00.613Z,31.28
2017-07-07T10:43:00.624Z,31.12
2017-07-07T10:44:00.797Z,31.07
2017-07-07T10:45:00.590Z,30.96
2017-07-07T10:46:00.586Z,30.88
2017-07-07T10:47:00.613Z,30.86
2017-07-07T10:48:00.583Z,30.85
2017-07-07T10:49:00.559Z,30.82
2017-07-07T10:50:00.559Z,30.88
2017-07-07T10:51:00.550Z,30.81
2017-07-07T10:52:00.534Z,30.97
2017-07-07T10:53:00.522Z,31.13
2017-07-07T10:54:00.507Z,31.15
2017-07-07T10:55:00.500Z,31.28
2017-07-07T10:56:00.492Z,31.4
2017-07-07T10:57:00.488Z,31.5
2017-07-07T10:58:00.474Z,31.62
2017-07-07T10:59:00.475Z,31.71
2017-07-07T11:00:00.451Z,31.84
2017-07-07T11:01:00.504Z,31.91
2017-07-07T11:02:00.500Z,32.14
2017-07-07T11:03:00.438Z,32.24
2017-07-07T11:04:00.486Z,32.39
2017-07-07T11:05:00.419Z,32.54
2017-07-07T11:06:00.413Z,32.54
2017-07-07T11:07:00.408Z,32.32
2017-07-07T11:08:00.396Z,31.97
2017-07-07T11:09:00.386Z,31.87
2017-07-07T11:10:00.375Z,31.82
2017-07-07T11:11:00.072Z,31.84
2017-07-07T11:12:00.368Z,31.75
2017-07-07T11:13:00.407Z,31.67
2017-07-07T11:14:00.038Z,31.47
2017-07-07T11:15:00.339Z,31.19
2017-07-07T11:16:00.341Z,30.96
2017-07-07T11:17:00.328Z,30.76
2017-07-07T11:18:00.319Z,30.78
2017-07-07T11:19:00.000Z,30.81
2017-07-07T11:20:00.298Z,30.88
2017-07-07T11:21:00.294Z,30.85
2017-07-07T11:22:00.287Z,30.85
2017-07-07T11:23:00.371Z,30.68
2017-07-07T11:24:00.266Z,30.73
2017-07-07T11:25:00.256Z,30.75
2017-07-07T11:26:00.554Z,30.86
2017-07-07T11:26:59.939Z,30.9
2017-07-07T11:27:59.909Z,30.75
2017-07-07T11:29:00.219Z,30.67
2017-07-07T11:30:00.208Z,30.68
2017-07-07T11:31:00.201Z,30.66
2017-07-07T11:32:00.199Z,30.81
2017-07-07T11:33:00.192Z,30.72
2017-07-07T11:34:00.177Z,30.79
2017-07-07T11:35:00.158Z,30.72
2017-07-07T11:36:00.144Z,30.48
2017-07-07T11:37:00.387Z,30.29
2017-07-07T11:38:00.133Z,30.25
2017-07-07T11:39:00.120Z,30.11
2017-07-07T11:40:00.113Z,30.03
2017-07-07T11:41:00.117Z,30.1
2017-07-07T11:42:00.087Z,29.99
2017-07-07T11:43:00.077Z,30
2017-07-07T11:43:59.754Z,30
2017-07-07T11:45:00.055Z,29.88
2017-07-07T11:46:00.051Z,29.89
2017-07-07T11:47:00.039Z,29.84
2017-07-07T11:48:00.025Z,29.79
2017-07-07T11:49:00.016Z,29.73
2017-07-07T11:49:59.989Z,29.66
2017-07-07T11:50:59.993Z,29.49
2017-07-07T11:51:59.979Z,29.32
2017-07-07T11:52:59.658Z,29.15
2017-07-07T11:53:59.958Z,29.08
2017-07-07T11:54:59.942Z,29.02
2017-07-07T11:55:59.951Z,29.08
2017-07-07T11:56:59.978Z,29.03
2017-07-07T11:57:59.604Z,29.08
2017-07-07T11:59:00.046Z,29.11
2017-07-07T11:59:59.887Z,29
2017-07-07T12:00:59.887Z,28.97
2017-07-07T12:01:59.908Z,28.85
2017-07-07T12:02:59.845Z,28.94
2017-07-07T12:03:59.833Z,28.85
2017-07-07T12:04:59.827Z,28.79
2017-07-07T12:05:59.814Z,28.85
2017-07-07T12:06:59.803Z,28.87
2017-07-07T12:07:59.808Z,28.87
2017-07-07T12:08:59.771Z,28.89
2017-07-07T12:09:59.761Z,28.72
2017-07-07T12:10:59.744Z,28.74
2017-07-07T12:11:59.748Z,28.69
2017-07-07T12:12:59.722Z,28.64
2017-07-07T12:13:59.708Z,28.58
2017-07-07T12:14:59.704Z,28.32
2017-07-07T12:15:59.682Z,28.24
2017-07-07T12:16:59.675Z,28.18
2017-07-07T12:17:59.654Z,28.17
2017-07-07T12:18:59.651Z,28.2
2017-07-07T12:19:59.629Z,28.24
2017-07-07T12:20:59.307Z,28.28
2017-07-07T12:21:59.292Z,28.42
2017-07-07T12:22:59.586Z,28.64
2017-07-07T12:23:59.583Z,28.77
2017-07-07T12:24:59.261Z,28.88
2017-07-07T12:25:59.611Z,29.17
2017-07-07T12:26:59.537Z,29.11
2017-07-07T12:27:59.528Z,29.29
2017-07-07T12:28:59.656Z,29.37
2017-07-07T12:29:59.517Z,29.52
2017-07-07T12:30:59.480Z,29.66
2017-07-07T12:31:59.722Z,29.6
2017-07-07T12:32:59.457Z,29.74
2017-07-07T12:33:59.496Z,29.7
2017-07-07T12:34:59.430Z,29.76
2017-07-07T12:35:59.414Z,29.82
2017-07-07T12:36:59.408Z,29.85
2017-07-07T12:37:59.392Z,29.89
2017-07-07T12:38:59.375Z,29.89
2017-07-07T12:39:59.363Z,29.88
2017-07-07T12:40:59.349Z,29.95
2017-07-07T12:41:59.388Z,29.99
2017-07-07T12:42:59.330Z,30.01
2017-07-07T12:43:59.320Z,29.99
2017-07-07T12:44:59.301Z,30.01
2017-07-07T12:45:59.342Z,30.03
2017-07-07T12:46:59.279Z,30.03
2017-07-07T12:47:59.365Z,30.19
2017-07-07T12:48:59.257Z,30.18
2017-07-07T12:49:58.933Z,30.32
2017-07-07T12:50:59.330Z,30.26
2017-07-07T12:51:59.226Z,30.4
2017-07-07T12:52:59.208Z,30.4
2017-07-07T12:53:59.204Z,30.45
2017-07-07T12:54:59.175Z,30.49
2017-07-07T12:55:59.165Z,30.4
2017-07-07T12:56:59.170Z,30.51
2017-07-07T12:57:59.145Z,30.56
2017-07-07T12:58:59.134Z,30.51
2017-07-07T12:59:59.420Z,30.48